sensor_id;sensor_type;location;lat;lon;timestamp;P1;durP1;ratioP1;P2;durP2;ratioP2
23390;SDS011;11868;45.606;5.302;2023-09-18T00:01:38;43.30;;;8.15;;
23390;SDS011;11868;45.606;5.302;2023-09-18T00:04:06;47.30;;;8.27;;
23390;SDS011;11868;45.606;5.302;2023-09-18T00:06:32;43.00;;;7.43;;
23390;SDS011;11868;45.606;5.302;2023-09-18T00:08:58;49.05;;;7.30;;
23390;SDS011;11868;45.606;5.302;2023-09-18T00:11:24;37.22;;;7.38;;
23390;SDS011;11868;45.606;5.302;2023-09-18T00:13:50;38.95;;;6.80;;
23390;SDS011;11868;45.606;5.302;2023-09-18T00:16:15;40.22;;;7.07;;
23390;SDS011;11868;45.606;5.302;2023-09-18T00:18:40;42.03;;;7.75;;
23390;SDS011;11868;45.606;5.302;2023-09-18T00:21:07;36.00;;;7.13;;
23390;SDS011;11868;45.606;5.302;2023-09-18T00:23:34;41.72;;;8.30;;
23390;SDS011;11868;45.606;5.302;2023-09-18T00:26:00;53.50;;;7.72;;
23390;SDS011;11868;45.606;5.302;2023-09-18T00:28:25;36.40;;;7.03;;
23390;SDS011;11868;45.606;5.302;2023-09-18T00:30:50;35.30;;;7.38;;
23390;SDS011;11868;45.606;5.302;2023-09-18T00:33:16;43.97;;;5.95;;
23390;SDS011;11868;45.606;5.302;2023-09-18T00:35:45;37.22;;;5.80;;
23390;SDS011;11868;45.606;5.302;2023-09-18T00:38:11;26.92;;;4.53;;
23390;SDS011;11868;45.606;5.302;2023-09-18T00:40:37;20.35;;;4.65;;
23390;SDS011;11868;45.606;5.302;2023-09-18T00:43:02;31.00;;;4.35;;
23390;SDS011;11868;45.606;5.302;2023-09-18T00:45:28;22.45;;;3.90;;
23390;SDS011;11868;45.606;5.302;2023-09-18T00:47:54;15.23;;;3.63;;
23390;SDS011;11868;45.606;5.302;2023-09-18T00:50:19;12.02;;;2.88;;
23390;SDS011;11868;45.606;5.302;2023-09-18T00:52:46;20.13;;;3.72;;
23390;SDS011;11868;45.606;5.302;2023-09-18T00:55:12;19.35;;;4.03;;
23390;SDS011;11868;45.606;5.302;2023-09-18T00:57:38;18.27;;;4.00;;
23390;SDS011;11868;45.606;5.302;2023-09-18T01:00:03;13.30;;;2.92;;
23390;SDS011;11868;45.606;5.302;2023-09-18T01:02:32;7.72;;;1.52;;
23390;SDS011;11868;45.606;5.302;2023-09-18T01:04:58;8.38;;;1.35;;
23390;SDS011;11868;45.606;5.302;2023-09-18T01:07:23;7.63;;;1.75;;
23390;SDS011;11868;45.606;5.302;2023-09-18T01:09:49;5.25;;;1.25;;
23390;SDS011;11868;45.606;5.302;2023-09-18T01:15:01;2.95;;;0.80;;
23390;SDS011;11868;45.606;5.302;2023-09-18T01:17:30;3.08;;;1.20;;
23390;SDS011;11868;45.606;5.302;2023-09-18T01:20:03;5.80;;;1.05;;
23390;SDS011;11868;45.606;5.302;2023-09-18T01:22:30;3.20;;;0.70;;
23390;SDS011;11868;45.606;5.302;2023-09-18T01:24:57;1.58;;;0.70;;
23390;SDS011;11868;45.606;5.302;2023-09-18T01:27:22;3.63;;;0.80;;
23390;SDS011;11868;45.606;5.302;2023-09-18T01:29:48;6.47;;;1.13;;
23390;SDS011;11868;45.606;5.302;2023-09-18T01:32:14;4.05;;;1.02;;
23390;SDS011;11868;45.606;5.302;2023-09-18T01:34:47;2.78;;;0.95;;
23390;SDS011;11868;45.606;5.302;2023-09-18T01:37:13;6.10;;;1.20;;
23390;SDS011;11868;45.606;5.302;2023-09-18T01:39:40;2.45;;;0.85;;
23390;SDS011;11868;45.606;5.302;2023-09-18T01:42:06;7.10;;;1.20;;
23390;SDS011;11868;45.606;5.302;2023-09-18T01:44:34;3.45;;;1.20;;
23390;SDS011;11868;45.606;5.302;2023-09-18T01:47:04;5.35;;;1.10;;
23390;SDS011;11868;45.606;5.302;2023-09-18T01:54:24;3.70;;;0.90;;
23390;SDS011;11868;45.606;5.302;2023-09-18T01:56:50;5.43;;;1.08;;
23390;SDS011;11868;45.606;5.302;2023-09-18T01:59:16;5.72;;;1.45;;
23390;SDS011;11868;45.606;5.302;2023-09-18T02:01:42;2.60;;;1.00;;
23390;SDS011;11868;45.606;5.302;2023-09-18T02:04:07;5.45;;;1.05;;
23390;SDS011;11868;45.606;5.302;2023-09-18T02:06:33;3.33;;;1.08;;
23390;SDS011;11868;45.606;5.302;2023-09-18T02:08:58;3.92;;;1.17;;
23390;SDS011;11868;45.606;5.302;2023-09-18T02:11:23;8.48;;;1.08;;
23390;SDS011;11868;45.606;5.302;2023-09-18T02:13:49;7.63;;;1.33;;
23390;SDS011;11868;45.606;5.302;2023-09-18T02:16:14;4.00;;;1.08;;
23390;SDS011;11868;45.606;5.302;2023-09-18T02:18:40;6.60;;;1.17;;
23390;SDS011;11868;45.606;5.302;2023-09-18T02:21:05;5.53;;;1.00;;
23390;SDS011;11868;45.606;5.302;2023-09-18T02:23:30;4.13;;;1.23;;
23390;SDS011;11868;45.606;5.302;2023-09-18T02:25:59;4.63;;;1.17;;
23390;SDS011;11868;45.606;5.302;2023-09-18T02:28:24;4.70;;;1.58;;
23390;SDS011;11868;45.606;5.302;2023-09-18T02:30:50;5.93;;;1.42;;
23390;SDS011;11868;45.606;5.302;2023-09-18T02:33:16;12.48;;;2.05;;
23390;SDS011;11868;45.606;5.302;2023-09-18T02:35:41;14.88;;;1.90;;
23390;SDS011;11868;45.606;5.302;2023-09-18T02:38:08;5.75;;;1.70;;
23390;SDS011;11868;45.606;5.302;2023-09-18T02:40:34;5.05;;;1.50;;
23390;SDS011;11868;45.606;5.302;2023-09-18T02:42:59;11.07;;;1.55;;
23390;SDS011;11868;45.606;5.302;2023-09-18T02:45:26;7.82;;;1.50;;
23390;SDS011;11868;45.606;5.302;2023-09-18T02:47:51;6.70;;;1.60;;
23390;SDS011;11868;45.606;5.302;2023-09-18T02:50:16;7.82;;;2.17;;
23390;SDS011;11868;45.606;5.302;2023-09-18T02:52:42;5.53;;;1.63;;
23390;SDS011;11868;45.606;5.302;2023-09-18T02:55:07;10.68;;;2.00;;
23390;SDS011;11868;45.606;5.302;2023-09-18T02:57:34;13.20;;;2.95;;
23390;SDS011;11868;45.606;5.302;2023-09-18T03:00:00;13.13;;;3.10;;
23390;SDS011;11868;45.606;5.302;2023-09-18T03:02:25;10.63;;;2.63;;
23390;SDS011;11868;45.606;5.302;2023-09-18T03:04:50;12.93;;;2.65;;
23390;SDS011;11868;45.606;5.302;2023-09-18T03:07:16;10.75;;;2.70;;
23390;SDS011;11868;45.606;5.302;2023-09-18T03:09:41;8.65;;;2.55;;
23390;SDS011;11868;45.606;5.302;2023-09-18T03:12:07;14.35;;;3.45;;
23390;SDS011;11868;45.606;5.302;2023-09-18T03:14:32;10.45;;;2.90;;
23390;SDS011;11868;45.606;5.302;2023-09-18T03:16:59;14.70;;;3.20;;
23390;SDS011;11868;45.606;5.302;2023-09-18T03:19:24;11.02;;;2.88;;
23390;SDS011;11868;45.606;5.302;2023-09-18T03:21:51;13.25;;;3.03;;
23390;SDS011;11868;45.606;5.302;2023-09-18T03:24:17;11.73;;;2.90;;
23390;SDS011;11868;45.606;5.302;2023-09-18T03:26:42;8.15;;;2.67;;
23390;SDS011;11868;45.606;5.302;2023-09-18T03:29:08;10.15;;;2.85;;
23390;SDS011;11868;45.606;5.302;2023-09-18T03:31:33;18.30;;;3.58;;
23390;SDS011;11868;45.606;5.302;2023-09-18T03:33:58;15.07;;;3.47;;
23390;SDS011;11868;45.606;5.302;2023-09-18T03:36:24;12.98;;;3.25;;
23390;SDS011;11868;45.606;5.302;2023-09-18T03:38:49;12.15;;;3.00;;
23390;SDS011;11868;45.606;5.302;2023-09-18T03:41:14;18.10;;;3.90;;
23390;SDS011;11868;45.606;5.302;2023-09-18T03:43:40;17.58;;;4.18;;
23390;SDS011;11868;45.606;5.302;2023-09-18T03:46:06;24.73;;;4.65;;
23390;SDS011;11868;45.606;5.302;2023-09-18T03:48:32;17.27;;;4.25;;
23390;SDS011;11868;45.606;5.302;2023-09-18T03:51:02;17.15;;;4.35;;
23390;SDS011;11868;45.606;5.302;2023-09-18T03:53:29;11.68;;;4.00;;
23390;SDS011;11868;45.606;5.302;2023-09-18T03:55:54;21.27;;;4.85;;
23390;SDS011;11868;45.606;5.302;2023-09-18T03:58:20;18.95;;;4.10;;
23390;SDS011;11868;45.606;5.302;2023-09-18T04:00:45;12.38;;;3.30;;
23390;SDS011;11868;45.606;5.302;2023-09-18T04:03:10;14.90;;;3.35;;
23390;SDS011;11868;45.606;5.302;2023-09-18T04:05:36;14.00;;;4.32;;
23390;SDS011;11868;45.606;5.302;2023-09-18T04:08:01;15.95;;;3.80;;
23390;SDS011;11868;45.606;5.302;2023-09-18T04:10:27;10.27;;;3.50;;
23390;SDS011;11868;45.606;5.302;2023-09-18T04:12:52;19.35;;;4.03;;
23390;SDS011;11868;45.606;5.302;2023-09-18T04:15:18;15.55;;;3.70;;
23390;SDS011;11868;45.606;5.302;2023-09-18T04:17:44;13.20;;;3.40;;
23390;SDS011;11868;45.606;5.302;2023-09-18T04:20:10;13.32;;;3.58;;
23390;SDS011;11868;45.606;5.302;2023-09-18T04:22:35;15.95;;;4.47;;
23390;SDS011;11868;45.606;5.302;2023-09-18T04:25:01;20.08;;;4.78;;
23390;SDS011;11868;45.606;5.302;2023-09-18T04:27:30;18.33;;;3.88;;
23390;SDS011;11868;45.606;5.302;2023-09-18T04:29:55;11.60;;;3.38;;
23390;SDS011;11868;45.606;5.302;2023-09-18T04:32:21;15.10;;;4.05;;
23390;SDS011;11868;45.606;5.302;2023-09-18T04:34:46;14.93;;;3.67;;
23390;SDS011;11868;45.606;5.302;2023-09-18T04:37:12;11.05;;;3.47;;
23390;SDS011;11868;45.606;5.302;2023-09-18T04:39:37;10.85;;;3.30;;
23390;SDS011;11868;45.606;5.302;2023-09-18T04:42:02;8.75;;;3.05;;
23390;SDS011;11868;45.606;5.302;2023-09-18T04:44:31;14.93;;;2.75;;
23390;SDS011;11868;45.606;5.302;2023-09-18T04:46:57;10.95;;;3.40;;
23390;SDS011;11868;45.606;5.302;2023-09-18T04:49:23;10.13;;;2.63;;
23390;SDS011;11868;45.606;5.302;2023-09-18T04:51:48;12.75;;;3.28;;
23390;SDS011;11868;45.606;5.302;2023-09-18T04:54:14;11.50;;;3.30;;
23390;SDS011;11868;45.606;5.302;2023-09-18T04:56:40;9.52;;;3.22;;
23390;SDS011;11868;45.606;5.302;2023-09-18T04:59:06;11.68;;;3.00;;
23390;SDS011;11868;45.606;5.302;2023-09-18T05:01:31;5.28;;;2.20;;
23390;SDS011;11868;45.606;5.302;2023-09-18T05:03:57;12.40;;;2.80;;
23390;SDS011;11868;45.606;5.302;2023-09-18T05:06:22;12.10;;;3.10;;
23390;SDS011;11868;45.606;5.302;2023-09-18T05:08:48;8.02;;;3.00;;
23390;SDS011;11868;45.606;5.302;2023-09-18T05:11:13;7.00;;;1.92;;
23390;SDS011;11868;45.606;5.302;2023-09-18T05:13:39;5.88;;;2.53;;
23390;SDS011;11868;45.606;5.302;2023-09-18T05:16:04;8.73;;;2.58;;
23390;SDS011;11868;45.606;5.302;2023-09-18T05:18:29;5.15;;;2.17;;
23390;SDS011;11868;45.606;5.302;2023-09-18T05:20:55;6.22;;;2.00;;
23390;SDS011;11868;45.606;5.302;2023-09-18T05:23:20;6.40;;;2.05;;
23390;SDS011;11868;45.606;5.302;2023-09-18T05:25:46;8.30;;;2.60;;
23390;SDS011;11868;45.606;5.302;2023-09-18T05:28:11;10.43;;;3.10;;
23390;SDS011;11868;45.606;5.302;2023-09-18T05:30:37;5.07;;;2.45;;
23390;SDS011;11868;45.606;5.302;2023-09-18T05:33:06;9.05;;;3.03;;
23390;SDS011;11868;45.606;5.302;2023-09-18T05:35:33;20.10;;;3.28;;
23390;SDS011;11868;45.606;5.302;2023-09-18T05:38:01;5.72;;;2.13;;
23390;SDS011;11868;45.606;5.302;2023-09-18T05:40:27;5.43;;;2.17;;
23390;SDS011;11868;45.606;5.302;2023-09-18T05:42:53;5.70;;;2.00;;
23390;SDS011;11868;45.606;5.302;2023-09-18T05:45:19;3.10;;;1.73;;
23390;SDS011;11868;45.606;5.302;2023-09-18T05:47:44;3.95;;;1.50;;
23390;SDS011;11868;45.606;5.302;2023-09-18T05:50:10;6.55;;;2.05;;
23390;SDS011;11868;45.606;5.302;2023-09-18T05:52:45;5.22;;;1.65;;
23390;SDS011;11868;45.606;5.302;2023-09-18T05:55:12;4.78;;;1.88;;
23390;SDS011;11868;45.606;5.302;2023-09-18T05:57:38;5.35;;;1.88;;
23390;SDS011;11868;45.606;5.302;2023-09-18T06:00:04;5.13;;;1.60;;
23390;SDS011;11868;45.606;5.302;2023-09-18T06:02:30;7.47;;;1.85;;
23390;SDS011;11868;45.606;5.302;2023-09-18T06:04:56;8.88;;;1.80;;
23390;SDS011;11868;45.606;5.302;2023-09-18T06:07:31;8.27;;;1.95;;
23390;SDS011;11868;45.606;5.302;2023-09-18T06:09:57;5.93;;;1.70;;
23390;SDS011;11868;45.606;5.302;2023-09-18T06:12:23;4.55;;;1.63;;
23390;SDS011;11868;45.606;5.302;2023-09-18T06:14:49;5.75;;;1.70;;
23390;SDS011;11868;45.606;5.302;2023-09-18T06:17:14;6.32;;;1.70;;
23390;SDS011;11868;45.606;5.302;2023-09-18T06:19:41;5.13;;;1.63;;
23390;SDS011;11868;45.606;5.302;2023-09-18T06:22:06;3.83;;;1.30;;
23390;SDS011;11868;45.606;5.302;2023-09-18T06:24:35;5.32;;;2.05;;
23390;SDS011;11868;45.606;5.302;2023-09-18T06:27:00;5.15;;;1.50;;
23390;SDS011;11868;45.606;5.302;2023-09-18T06:29:26;5.10;;;1.80;;
23390;SDS011;11868;45.606;5.302;2023-09-18T06:31:51;5.07;;;1.60;;
23390;SDS011;11868;45.606;5.302;2023-09-18T06:34:17;8.88;;;2.05;;
23390;SDS011;11868;45.606;5.302;2023-09-18T06:36:42;5.07;;;1.60;;
23390;SDS011;11868;45.606;5.302;2023-09-18T06:39:08;4.40;;;1.42;;
23390;SDS011;11868;45.606;5.302;2023-09-18T06:41:33;6.68;;;1.83;;
23390;SDS011;11868;45.606;5.302;2023-09-18T06:43:59;4.57;;;1.63;;
23390;SDS011;11868;45.606;5.302;2023-09-18T06:46:27;3.42;;;1.40;;
23390;SDS011;11868;45.606;5.302;2023-09-18T06:48:53;4.07;;;1.38;;
23390;SDS011;11868;45.606;5.302;2023-09-18T06:51:18;5.45;;;1.45;;
23390;SDS011;11868;45.606;5.302;2023-09-18T06:53:43;2.42;;;1.55;;
23390;SDS011;11868;45.606;5.302;2023-09-18T06:56:09;5.05;;;1.42;;
23390;SDS011;11868;45.606;5.302;2023-09-18T06:58:34;6.38;;;1.58;;
23390;SDS011;11868;45.606;5.302;2023-09-18T07:01:00;1.67;;;1.33;;
23390;SDS011;11868;45.606;5.302;2023-09-18T07:03:25;3.00;;;1.48;;
23390;SDS011;11868;45.606;5.302;2023-09-18T07:05:51;2.90;;;1.73;;
23390;SDS011;11868;45.606;5.302;2023-09-18T07:08:16;3.35;;;1.60;;
23390;SDS011;11868;45.606;5.302;2023-09-18T07:10:44;5.43;;;1.77;;
23390;SDS011;11868;45.606;5.302;2023-09-18T07:13:10;2.80;;;1.63;;
23390;SDS011;11868;45.606;5.302;2023-09-18T07:15:36;4.93;;;1.67;;
23390;SDS011;11868;45.606;5.302;2023-09-18T07:18:02;5.53;;;1.70;;
23390;SDS011;11868;45.606;5.302;2023-09-18T07:20:27;3.78;;;2.00;;
23390;SDS011;11868;45.606;5.302;2023-09-18T07:22:53;3.45;;;1.88;;
23390;SDS011;11868;45.606;5.302;2023-09-18T07:25:18;5.32;;;1.50;;
23390;SDS011;11868;45.606;5.302;2023-09-18T07:27:44;3.22;;;1.60;;
23390;SDS011;11868;45.606;5.302;2023-09-18T07:30:10;8.18;;;1.60;;
23390;SDS011;11868;45.606;5.302;2023-09-18T07:32:36;7.13;;;2.90;;
23390;SDS011;11868;45.606;5.302;2023-09-18T07:35:01;4.68;;;1.83;;
23390;SDS011;11868;45.606;5.302;2023-09-18T07:37:29;8.25;;;2.53;;
23390;SDS011;11868;45.606;5.302;2023-09-18T07:39:55;8.30;;;2.60;;
23390;SDS011;11868;45.606;5.302;2023-09-18T07:42:23;7.55;;;2.35;;
23390;SDS011;11868;45.606;5.302;2023-09-18T07:44:49;6.03;;;2.08;;
23390;SDS011;11868;45.606;5.302;2023-09-18T07:47:15;3.83;;;1.70;;
23390;SDS011;11868;45.606;5.302;2023-09-18T07:49:40;5.50;;;1.58;;
23390;SDS011;11868;45.606;5.302;2023-09-18T07:52:05;4.53;;;1.42;;
23390;SDS011;11868;45.606;5.302;2023-09-18T07:54:31;7.68;;;1.80;;
23390;SDS011;11868;45.606;5.302;2023-09-18T07:56:56;5.75;;;2.20;;
23390;SDS011;11868;45.606;5.302;2023-09-18T07:59:22;2.80;;;1.48;;
23390;SDS011;11868;45.606;5.302;2023-09-18T08:01:48;4.68;;;1.83;;
23390;SDS011;11868;45.606;5.302;2023-09-18T08:04:13;6.15;;;1.80;;
23390;SDS011;11868;45.606;5.302;2023-09-18T08:06:39;5.07;;;1.88;;
23390;SDS011;11868;45.606;5.302;2023-09-18T08:09:06;7.90;;;2.25;;
23390;SDS011;11868;45.606;5.302;2023-09-18T08:11:34;5.15;;;1.88;;
23390;SDS011;11868;45.606;5.302;2023-09-18T08:14:01;4.13;;;2.00;;
23390;SDS011;11868;45.606;5.302;2023-09-18T08:16:26;5.60;;;1.63;;
23390;SDS011;11868;45.606;5.302;2023-09-18T08:18:52;6.88;;;2.08;;
23390;SDS011;11868;45.606;5.302;2023-09-18T08:23:43;6.85;;;1.77;;
23390;SDS011;11868;45.606;5.302;2023-09-18T08:26:10;7.05;;;1.63;;
23390;SDS011;11868;45.606;5.302;2023-09-18T08:28:35;3.55;;;1.52;;
23390;SDS011;11868;45.606;5.302;2023-09-18T08:31:03;4.38;;;1.73;;
23390;SDS011;11868;45.606;5.302;2023-09-18T08:33:28;6.32;;;1.75;;
23390;SDS011;11868;45.606;5.302;2023-09-18T08:35:53;4.60;;;1.73;;
23390;SDS011;11868;45.606;5.302;2023-09-18T08:38:19;4.75;;;1.67;;
23390;SDS011;11868;45.606;5.302;2023-09-18T08:40:44;6.22;;;1.67;;
23390;SDS011;11868;45.606;5.302;2023-09-18T08:43:11;5.68;;;1.67;;
23390;SDS011;11868;45.606;5.302;2023-09-18T08:45:51;8.27;;;1.67;;
23390;SDS011;11868;45.606;5.302;2023-09-18T08:48:20;9.75;;;2.20;;
23390;SDS011;11868;45.606;5.302;2023-09-18T08:50:46;8.82;;;2.13;;
23390;SDS011;11868;45.606;5.302;2023-09-18T08:53:12;8.20;;;2.53;;
23390;SDS011;11868;45.606;5.302;2023-09-18T08:55:38;7.95;;;1.95;;
23390;SDS011;11868;45.606;5.302;2023-09-18T08:58:03;8.25;;;1.60;;
23390;SDS011;11868;45.606;5.302;2023-09-18T09:00:29;5.03;;;1.60;;
23390;SDS011;11868;45.606;5.302;2023-09-18T09:02:54;7.43;;;2.05;;
23390;SDS011;11868;45.606;5.302;2023-09-18T09:05:23;5.53;;;1.63;;
23390;SDS011;11868;45.606;5.302;2023-09-18T09:07:49;8.00;;;1.63;;
23390;SDS011;11868;45.606;5.302;2023-09-18T09:10:15;9.25;;;2.00;;
23390;SDS011;11868;45.606;5.302;2023-09-18T09:15:14;4.85;;;1.40;;
23390;SDS011;11868;45.606;5.302;2023-09-18T09:17:39;7.35;;;1.92;;
23390;SDS011;11868;45.606;5.302;2023-09-18T09:20:09;8.63;;;1.65;;
23390;SDS011;11868;45.606;5.302;2023-09-18T09:22:38;8.18;;;2.08;;
23390;SDS011;11868;45.606;5.302;2023-09-18T09:25:05;5.35;;;2.10;;
23390;SDS011;11868;45.606;5.302;2023-09-18T09:27:47;5.43;;;1.67;;
23390;SDS011;11868;45.606;5.302;2023-09-18T09:30:18;5.53;;;1.80;;
23390;SDS011;11868;45.606;5.302;2023-09-18T09:32:44;5.38;;;2.00;;
23390;SDS011;11868;45.606;5.302;2023-09-18T09:35:18;4.15;;;1.58;;
23390;SDS011;11868;45.606;5.302;2023-09-18T09:37:47;3.15;;;1.38;;
23390;SDS011;11868;45.606;5.302;2023-09-18T09:40:15;6.20;;;1.90;;
23390;SDS011;11868;45.606;5.302;2023-09-18T09:42:41;5.10;;;1.58;;
23390;SDS011;11868;45.606;5.302;2023-09-18T09:45:13;6.45;;;1.58;;
23390;SDS011;11868;45.606;5.302;2023-09-18T09:47:41;7.07;;;1.80;;
23390;SDS011;11868;45.606;5.302;2023-09-18T09:50:07;6.85;;;1.98;;
23390;SDS011;11868;45.606;5.302;2023-09-18T09:52:35;3.92;;;1.75;;
23390;SDS011;11868;45.606;5.302;2023-09-18T09:55:01;6.43;;;1.60;;
23390;SDS011;11868;45.606;5.302;2023-09-18T09:57:30;3.67;;;1.63;;
23390;SDS011;11868;45.606;5.302;2023-09-18T10:00:02;3.35;;;1.60;;
23390;SDS011;11868;45.606;5.302;2023-09-18T10:02:50;3.75;;;1.70;;
23390;SDS011;11868;45.606;5.302;2023-09-18T10:05:15;3.28;;;1.70;;
23390;SDS011;11868;45.606;5.302;2023-09-18T10:07:42;4.47;;;1.90;;
23390;SDS011;11868;45.606;5.302;2023-09-18T10:10:08;6.72;;;1.70;;
23390;SDS011;11868;45.606;5.302;2023-09-18T10:12:34;2.83;;;1.55;;
23390;SDS011;11868;45.606;5.302;2023-09-18T10:15:00;5.82;;;1.77;;
23390;SDS011;11868;45.606;5.302;2023-09-18T10:17:28;4.63;;;1.90;;
23390;SDS011;11868;45.606;5.302;2023-09-18T10:20:07;4.35;;;1.55;;
23390;SDS011;11868;45.606;5.302;2023-09-18T10:25:07;5.00;;;1.85;;
23390;SDS011;11868;45.606;5.302;2023-09-18T10:27:38;8.98;;;1.60;;
23390;SDS011;11868;45.606;5.302;2023-09-18T10:30:06;3.28;;;2.00;;
23390;SDS011;11868;45.606;5.302;2023-09-18T10:32:38;3.72;;;1.88;;
23390;SDS011;11868;45.606;5.302;2023-09-18T10:35:06;3.45;;;1.40;;
23390;SDS011;11868;45.606;5.302;2023-09-18T10:37:33;3.78;;;1.58;;
23390;SDS011;11868;45.606;5.302;2023-09-18T10:39:59;3.22;;;1.40;;
23390;SDS011;11868;45.606;5.302;2023-09-18T10:42:25;3.60;;;1.30;;
23390;SDS011;11868;45.606;5.302;2023-09-18T10:44:52;4.88;;;1.65;;
23390;SDS011;11868;45.606;5.302;2023-09-18T10:47:17;3.35;;;1.63;;
23390;SDS011;11868;45.606;5.302;2023-09-18T10:49:43;3.88;;;1.58;;
23390;SDS011;11868;45.606;5.302;2023-09-18T10:52:12;4.60;;;1.50;;
23390;SDS011;11868;45.606;5.302;2023-09-18T10:54:40;5.82;;;1.60;;
23390;SDS011;11868;45.606;5.302;2023-09-18T10:57:06;4.47;;;1.50;;
23390;SDS011;11868;45.606;5.302;2023-09-18T10:59:31;5.38;;;1.70;;
23390;SDS011;11868;45.606;5.302;2023-09-18T11:02:02;5.40;;;1.70;;
23390;SDS011;11868;45.606;5.302;2023-09-18T11:04:30;5.82;;;1.85;;
23390;SDS011;11868;45.606;5.302;2023-09-18T11:07:03;5.65;;;1.80;;
23390;SDS011;11868;45.606;5.302;2023-09-18T11:09:31;6.45;;;1.65;;
23390;SDS011;11868;45.606;5.302;2023-09-18T11:17:09;4.18;;;1.67;;
23390;SDS011;11868;45.606;5.302;2023-09-18T11:24:44;4.00;;;1.70;;
23390;SDS011;11868;45.606;5.302;2023-09-18T11:27:10;5.32;;;1.73;;
23390;SDS011;11868;45.606;5.302;2023-09-18T11:29:35;3.10;;;1.50;;
23390;SDS011;11868;45.606;5.302;2023-09-18T11:32:01;6.82;;;1.63;;
23390;SDS011;11868;45.606;5.302;2023-09-18T11:34:30;4.00;;;1.52;;
23390;SDS011;11868;45.606;5.302;2023-09-18T11:37:18;5.00;;;1.50;;
23390;SDS011;11868;45.606;5.302;2023-09-18T11:39:44;7.68;;;1.60;;
23390;SDS011;11868;45.606;5.302;2023-09-18T11:42:17;5.00;;;1.67;;
23390;SDS011;11868;45.606;5.302;2023-09-18T11:44:45;3.72;;;1.48;;
23390;SDS011;11868;45.606;5.302;2023-09-18T11:47:16;2.42;;;1.25;;
23390;SDS011;11868;45.606;5.302;2023-09-18T11:52:22;3.60;;;1.55;;
23390;SDS011;11868;45.606;5.302;2023-09-18T11:54:52;3.10;;;1.42;;
23390;SDS011;11868;45.606;5.302;2023-09-18T11:57:19;5.75;;;1.38;;
23390;SDS011;11868;45.606;5.302;2023-09-18T11:59:45;6.28;;;1.42;;
23390;SDS011;11868;45.606;5.302;2023-09-18T12:02:12;3.05;;;1.48;;
23390;SDS011;11868;45.606;5.302;2023-09-18T12:04:45;4.47;;;1.42;;
23390;SDS011;11868;45.606;5.302;2023-09-18T12:07:12;6.50;;;1.35;;
23390;SDS011;11868;45.606;5.302;2023-09-18T12:09:37;3.03;;;1.50;;
23390;SDS011;11868;45.606;5.302;2023-09-18T12:12:04;2.28;;;1.48;;
23390;SDS011;11868;45.606;5.302;2023-09-18T12:14:31;3.05;;;1.40;;
23390;SDS011;11868;45.606;5.302;2023-09-18T12:16:58;3.08;;;1.30;;
23390;SDS011;11868;45.606;5.302;2023-09-18T12:19:25;4.90;;;1.80;;
23390;SDS011;11868;45.606;5.302;2023-09-18T12:21:50;7.22;;;1.77;;
23390;SDS011;11868;45.606;5.302;2023-09-18T12:24:23;6.10;;;1.40;;
23390;SDS011;11868;45.606;5.302;2023-09-18T12:26:49;6.47;;;1.70;;
23390;SDS011;11868;45.606;5.302;2023-09-18T12:29:16;6.03;;;1.60;;
23390;SDS011;11868;45.606;5.302;2023-09-18T12:31:41;2.75;;;1.48;;
23390;SDS011;11868;45.606;5.302;2023-09-18T12:34:14;2.03;;;1.48;;
23390;SDS011;11868;45.606;5.302;2023-09-18T12:36:44;7.82;;;1.63;;
23390;SDS011;11868;45.606;5.302;2023-09-18T12:39:12;3.92;;;1.58;;
23390;SDS011;11868;45.606;5.302;2023-09-18T12:41:41;9.48;;;1.92;;
23390;SDS011;11868;45.606;5.302;2023-09-18T12:44:07;6.47;;;1.80;;
23390;SDS011;11868;45.606;5.302;2023-09-18T12:46:32;6.07;;;1.90;;
23390;SDS011;11868;45.606;5.302;2023-09-18T12:48:58;4.78;;;1.52;;
23390;SDS011;11868;45.606;5.302;2023-09-18T12:51:30;3.78;;;1.60;;
23390;SDS011;11868;45.606;5.302;2023-09-18T12:54:00;5.15;;;1.70;;
23390;SDS011;11868;45.606;5.302;2023-09-18T12:56:26;4.15;;;1.38;;
23390;SDS011;11868;45.606;5.302;2023-09-18T12:58:51;7.13;;;1.70;;
23390;SDS011;11868;45.606;5.302;2023-09-18T13:01:16;4.57;;;1.52;;
23390;SDS011;11868;45.606;5.302;2023-09-18T13:03:42;2.50;;;1.60;;
23390;SDS011;11868;45.606;5.302;2023-09-18T13:06:08;4.00;;;1.50;;
23390;SDS011;11868;45.606;5.302;2023-09-18T13:08:35;3.58;;;1.30;;
23390;SDS011;11868;45.606;5.302;2023-09-18T13:11:00;5.13;;;1.73;;
23390;SDS011;11868;45.606;5.302;2023-09-18T13:13:28;4.43;;;1.50;;
23390;SDS011;11868;45.606;5.302;2023-09-18T13:15:56;4.70;;;1.73;;
23390;SDS011;11868;45.606;5.302;2023-09-18T13:18:24;3.72;;;1.70;;
23390;SDS011;11868;45.606;5.302;2023-09-18T13:20:50;2.42;;;1.70;;
23390;SDS011;11868;45.606;5.302;2023-09-18T13:23:15;6.07;;;1.80;;
23390;SDS011;11868;45.606;5.302;2023-09-18T13:25:41;5.05;;;1.83;;
23390;SDS011;11868;45.606;5.302;2023-09-18T13:28:11;3.85;;;1.75;;
23390;SDS011;11868;45.606;5.302;2023-09-18T13:30:38;2.35;;;1.48;;
23390;SDS011;11868;45.606;5.302;2023-09-18T13:33:08;3.97;;;1.70;;
23390;SDS011;11868;45.606;5.302;2023-09-18T13:35:36;3.60;;;1.67;;
23390;SDS011;11868;45.606;5.302;2023-09-18T13:38:06;9.88;;;1.98;;
23390;SDS011;11868;45.606;5.302;2023-09-18T13:40:32;3.72;;;1.70;;
23390;SDS011;11868;45.606;5.302;2023-09-18T13:42:58;6.18;;;2.00;;
23390;SDS011;11868;45.606;5.302;2023-09-18T13:45:24;6.85;;;2.00;;
23390;SDS011;11868;45.606;5.302;2023-09-18T13:47:49;4.72;;;1.90;;
23390;SDS011;11868;45.606;5.302;2023-09-18T13:50:15;6.95;;;2.33;;
23390;SDS011;11868;45.606;5.302;2023-09-18T13:52:40;5.13;;;2.10;;
23390;SDS011;11868;45.606;5.302;2023-09-18T13:55:06;5.43;;;2.25;;
23390;SDS011;11868;45.606;5.302;2023-09-18T13:57:32;8.40;;;2.10;;
23390;SDS011;11868;45.606;5.302;2023-09-18T13:59:59;4.75;;;2.05;;
23390;SDS011;11868;45.606;5.302;2023-09-18T14:02:25;6.05;;;2.20;;
23390;SDS011;11868;45.606;5.302;2023-09-18T14:04:52;5.57;;;2.20;;
23390;SDS011;11868;45.606;5.302;2023-09-18T14:07:44;7.70;;;2.17;;
23390;SDS011;11868;45.606;5.302;2023-09-18T14:10:10;3.58;;;1.92;;
23390;SDS011;11868;45.606;5.302;2023-09-18T14:12:39;7.05;;;2.05;;
23390;SDS011;11868;45.606;5.302;2023-09-18T14:15:05;5.38;;;2.10;;
23390;SDS011;11868;45.606;5.302;2023-09-18T14:17:31;8.63;;;2.25;;
23390;SDS011;11868;45.606;5.302;2023-09-18T14:19:57;7.57;;;2.20;;
23390;SDS011;11868;45.606;5.302;2023-09-18T14:22:24;31.08;;;6.13;;
23390;SDS011;11868;45.606;5.302;2023-09-18T14:24:49;139.60;;;25.63;;
23390;SDS011;11868;45.606;5.302;2023-09-18T14:27:15;103.13;;;18.58;;
23390;SDS011;11868;45.606;5.302;2023-09-18T14:29:40;29.90;;;6.95;;
23390;SDS011;11868;45.606;5.302;2023-09-18T14:32:05;10.38;;;3.78;;
23390;SDS011;11868;45.606;5.302;2023-09-18T14:34:33;28.05;;;5.30;;
23390;SDS011;11868;45.606;5.302;2023-09-18T14:37:00;22.88;;;4.15;;
23390;SDS011;11868;45.606;5.302;2023-09-18T14:39:29;8.35;;;2.67;;
23390;SDS011;11868;45.606;5.302;2023-09-18T14:41:58;6.78;;;2.22;;
23390;SDS011;11868;45.606;5.302;2023-09-18T14:44:24;5.10;;;2.20;;
23390;SDS011;11868;45.606;5.302;2023-09-18T14:46:50;9.98;;;2.38;;
23390;SDS011;11868;45.606;5.302;2023-09-18T14:49:15;6.88;;;2.35;;
23390;SDS011;11868;45.606;5.302;2023-09-18T14:51:41;9.50;;;2.60;;
23390;SDS011;11868;45.606;5.302;2023-09-18T14:54:06;4.85;;;2.05;;
23390;SDS011;11868;45.606;5.302;2023-09-18T14:56:33;12.40;;;2.60;;
23390;SDS011;11868;45.606;5.302;2023-09-18T14:59:00;5.00;;;2.13;;
23390;SDS011;11868;45.606;5.302;2023-09-18T15:01:26;5.65;;;2.30;;
23390;SDS011;11868;45.606;5.302;2023-09-18T15:03:51;4.80;;;2.20;;
23390;SDS011;11868;45.606;5.302;2023-09-18T15:06:17;5.53;;;2.50;;
23390;SDS011;11868;45.606;5.302;2023-09-18T15:08:43;3.92;;;2.25;;